Airfield :
LOGIN :

Register | Disclaimer

   EN    FR    IT 

 










Legend :    VFR   Marginal VFR   IFR   Intensive IFR   Very Intensive IFR
Visi :
Ceiling :
>= 8 km
>= 3000ft
5 to 8 km
1000 to 3000 ft
1500m to 5 km
500 to 1000 ft
800 to 1500m
200 to 500 ft
< 800m
< 200 ft
Symbols :   Thunderstorms  Fog  Heavy snow  Heavy precipitations  Wind > 20 kt
SIGMETs :     Misc.  Thunderstorms  Icing  Turbulence  Mountain Waves  Volcanic Ashes






- Airport Elevation : 416 ft
- IATA code : OVD


LEAS - Asturias

CURRENT METAR :
  • 021130Z 02005KT 320V060 9999 SCT008 SCT017 BKN027 19/17 Q1021 NOSIG

EXPIRED METARs :
  • 021100Z 02004KT 310V070 9999 FEW008 BKN030 19/17 Q1021 NOSIG
  • 021030Z 36003KT 280V060 9999 FEW024 BKN030 19/16 Q1020 NOSIG
  • 021000Z 35003KT 280V050 9999 FEW020 BKN028 19/16 Q1020 NOSIG
  • 020930Z 01003KT 260V070 9999 FEW020 BKN027 19/16 Q1020 NOSIG
  • 020900Z 03004KT 340V080 9999 FEW018 BKN024 18/16 Q1020 NOSIG

TAF COR TAF LEAS
Valid from the 02 at 09:00 until the 03 at 09:00 UTC


020827Z 0209/0309 05009KT 9999 SCT020 TX22/0215Z TN16/0305Z
PROB30
TEMPO 0209/0221 BKN010
PROB40
TEMPO 0221/0309 BKN010
PROB30
TEMPO 0221/0309 3000 DZ BKN005



MET'MAP, your aeronautical weather chart ! - Copyright ORBIFLY December 2007 - Disclaimer

ORBIFLY MET'MAP TEAM :

Programming & Development : Alexandra Zaïnal
Original concept : Baudouin d'Aumeries
Technical & hardware support : Manuel Goepfert
Assistance : Marc-Olivier Méhu




SOURCES & CREDITS :

   NOAA